Terminal Aerodrome Forecast
Issued by NWS Sterling, VA

Current Version | Previous Version | Graphics & Text | Print | Product List | Glossary On
Versions: 1 2 3 4 5 6 7 8 9 10 11 12 13 14 15 16 17 18 19 20 21 22 23 24 25 26 27 28
000
FTUS41 KLWX 270500
TAFDCA
TAF
KDCA 270540Z 2706/2806 33017G22KT 4SM -SN OVC020
     FM271000 33011G19KT 5SM -SHSN OVC015
     FM271200 33011G19KT P6SM OVC025
     FM272000 32013G22KT P6SM BKN045
     FM280200 32014KT P6SM SCT050=

USA.gov is the U.S. government's official web portal to all federal, state and local government web resources and services.